Airfield :







YOU CAN JOIN US ON...

 
LOGIN :

Register | Disclaimer

   EN    FR    IT 

 









Legend :    VFR   Marginal VFR   IFR   Intensive IFR   Very Intensive IFR
Visi :
Ceiling :
>= 8 km
>= 3000ft
5 to 8 km
1000 to 3000 ft
1500m to 5 km
500 to 1000 ft
800 to 1500m
200 to 500 ft
< 800m
< 200 ft
Symbols :   Thunderstorms  Fog  Heavy snow  Heavy precipitations  Wind > 20 kt






- Airport Elevation : 198 ft
- IATA code : STM


SBSN - Maestro Wilson Fonseca Int.

CURRENT METAR :
  • 251200Z 33002KT 9999 FEW016 SCT100 26/25 Q1013

EXPIRED METARs :
  • 251100Z 36003KT 9999 FEW013 BKN100 26/25 Q1011
  • 251000Z 36002KT 9999 FEW016 SCT080 25/24 Q1011

TAF TAF SBSN
Valid from the 25 at 12:00 until the 26 at 12:00 UTC


250800Z 2512/2612 10010KT 7000 SCT015 TX31/2517Z TN24/2609Z
BECMG 2513/2514 07010KT 9999 SCT012
BECMG 2516/2517 09010KT SCT017 FEW027TCU
BECMG 2522/2524 15007KT SCT020
BECMG 2603/2605 8000 SCT016 FEW027TCU
BECMG 2606/2608 10007KT 5000 RA SCT007 BKN015 RMK PGB



MET'MAP, your aeronautical weather chart ! - Copyright ORBIFLY December 2007 - Disclaimer

ORBIFLY MET'MAP TEAM :

Programming & Development : Alexandra Zaïnal
Concept & original design : Baudouin d'Aumeries
Assistance for programming : Marc-Olivier Méhu
Technical & hardware support : Manuel Goepfert

Contact : metmap@orbifly.com




SOURCES & CREDITS :

   NOAA